createdAt,value
2019-04-11T00:02:10.061Z,7.84
2019-04-11T00:04:42.037Z,7.80
2019-04-11T00:07:14.432Z,7.85
2019-04-11T00:09:45.421Z,7.84
2019-04-11T00:12:18.722Z,8.01
2019-04-11T00:14:49.217Z,7.90
2019-04-11T00:17:21.630Z,7.89
2019-04-11T00:19:52.286Z,7.87
2019-04-11T00:22:25.972Z,7.82
2019-04-11T00:24:58.981Z,7.81
2019-04-11T00:27:30.840Z,7.87
2019-04-11T00:30:01.992Z,7.89
2019-04-11T00:32:33.822Z,7.88
2019-04-11T00:35:05.619Z,7.94
2019-04-11T00:37:37.034Z,7.87
2019-04-11T00:40:08.979Z,7.82
2019-04-11T00:42:40.933Z,7.77
2019-04-11T00:45:13.648Z,7.83
2019-04-11T00:47:44.990Z,7.87
2019-04-11T00:50:15.487Z,7.80
2019-04-11T00:52:47.595Z,7.75
2019-04-11T00:55:19.631Z,7.80
2019-04-11T00:57:50.300Z,7.79
2019-04-11T01:00:22.824Z,7.77
2019-04-11T01:02:53.751Z,7.76
2019-04-11T01:05:25.615Z,7.77
2019-04-11T01:07:57.664Z,7.73
2019-04-11T01:10:28.375Z,7.66
2019-04-11T01:13:00.790Z,7.68
2019-04-11T01:15:31.405Z,7.63
2019-04-11T01:18:04.194Z,7.66
2019-04-11T01:20:41.918Z,7.69
2019-04-11T01:23:18.594Z,7.67
2019-04-11T01:25:59.004Z,7.66
2019-04-11T01:28:36.762Z,7.63
2019-04-11T01:31:15.633Z,7.60
2019-04-11T01:33:58.036Z,7.60
2019-04-11T01:36:35.257Z,7.54
2019-04-11T01:39:28.028Z,7.57
2019-04-11T01:42:16.641Z,7.49
2019-04-11T01:44:49.782Z,7.54
2019-04-11T01:48:03.702Z,7.50
2019-04-11T01:50:45.064Z,7.47
2019-04-11T01:53:37.323Z,7.50
2019-04-11T01:56:11.156Z,7.46
2019-04-11T01:58:44.715Z,7.44
2019-04-11T02:01:49.367Z,7.42
2019-04-11T02:04:28.328Z,7.42
2019-04-11T02:07:10.145Z,7.43
2019-04-11T02:09:50.518Z,7.44
2019-04-11T02:12:30.941Z,7.39
2019-04-11T02:15:06.022Z,7.47
2019-04-11T02:17:43.465Z,7.41
2019-04-11T02:20:17.161Z,7.44
2019-04-11T02:23:15.067Z,7.34
2019-04-11T02:26:10.067Z,7.36
2019-04-11T02:28:44.551Z,7.33
2019-04-11T02:31:17.149Z,7.30
2019-04-11T02:33:51.171Z,7.34
2019-04-11T02:36:22.420Z,7.30
2019-04-11T02:38:56.576Z,7.27
2019-04-11T02:41:25.515Z,7.31
2019-04-11T02:43:57.970Z,7.34
2019-04-11T02:46:41.221Z,7.33
2019-04-11T02:49:03.251Z,7.31
2019-04-11T02:51:35.065Z,7.26
2019-04-11T02:54:11.505Z,7.32
2019-04-11T02:56:45.547Z,7.25
2019-04-11T02:59:17.588Z,7.20
2019-04-11T03:01:50.937Z,7.16
2019-04-11T03:04:24.494Z,7.17
2019-04-11T03:06:57.421Z,7.13
2019-04-11T03:09:29.127Z,7.15
2019-04-11T03:11:59.671Z,7.17
2019-04-11T03:14:46.123Z,7.13
2019-04-11T03:17:14.058Z,7.12
2019-04-11T03:19:49.226Z,7.13
2019-04-11T03:22:09.968Z,7.11
2019-04-11T03:24:42.754Z,7.10
2019-04-11T03:27:15.535Z,7.03
2019-04-11T03:29:47.152Z,7.04
2019-04-11T03:33:07.282Z,7.04
2019-04-11T03:36:00.735Z,7.01
2019-04-11T03:37:54.706Z,6.97
2019-04-11T03:40:23.844Z,6.99
2019-04-11T03:42:46.523Z,7.01
2019-04-11T03:45:32.798Z,6.91
2019-04-11T03:48:03.781Z,6.85
2019-04-11T03:50:21.976Z,6.86
2019-04-11T03:52:51.864Z,6.79
2019-04-11T03:55:28.389Z,6.75
2019-04-11T03:58:01.309Z,6.74
2019-04-11T04:00:35.977Z,6.74
2019-04-11T04:03:09.112Z,6.72
2019-04-11T04:05:42.309Z,6.73
2019-04-11T04:08:15.562Z,6.73
2019-04-11T04:11:06.250Z,6.75
2019-04-11T04:13:39.920Z,6.74
2019-04-11T04:16:36.560Z,6.74
2019-04-11T04:19:25.143Z,6.68
2019-04-11T04:22:11.124Z,6.65
2019-04-11T04:24:43.221Z,6.65
2019-04-11T04:27:15.488Z,6.66
2019-04-11T04:29:52.855Z,6.66
2019-04-11T04:32:23.694Z,6.69
2019-04-11T04:34:56.036Z,6.63
2019-04-11T04:37:29.601Z,6.58
2019-04-11T04:40:21.654Z,6.54
2019-04-11T04:42:40.352Z,6.64
2019-04-11T04:45:11.806Z,6.63
2019-04-11T04:47:51.420Z,6.55
2019-04-11T04:50:18.058Z,6.57
2019-04-11T04:52:51.585Z,6.60
2019-04-11T04:55:23.564Z,6.65
2019-04-11T04:57:57.684Z,6.56
2019-04-11T05:00:34.837Z,6.63
2019-04-11T05:03:07.493Z,6.62
2019-04-11T05:05:38.509Z,6.71
2019-04-11T05:08:10.654Z,6.69
2019-04-11T05:10:43.140Z,6.75
2019-04-11T05:13:17.211Z,6.72
2019-04-11T05:15:48.989Z,6.67
2019-04-11T05:18:20.754Z,6.71
2019-04-11T05:20:54.776Z,6.63
2019-04-11T05:23:25.722Z,6.59
2019-04-11T05:25:57.167Z,6.69
2019-04-11T05:28:29.826Z,6.83
2019-04-11T05:31:00.688Z,6.79
2019-04-11T05:33:31.916Z,6.81
2019-04-11T05:36:04.020Z,6.82
2019-04-11T05:38:35.994Z,6.90
2019-04-11T05:41:12.128Z,6.90
2019-04-11T05:43:41.819Z,6.89
2019-04-11T05:46:26.051Z,6.86
2019-04-11T05:49:16.921Z,6.91
2019-04-11T05:51:58.880Z,7.09
2019-04-11T05:54:36.484Z,7.03
2019-04-11T05:57:09.110Z,7.15
2019-04-11T05:59:41.212Z,7.24
2019-04-11T06:02:21.394Z,7.20
2019-04-11T06:05:02.782Z,7.05
2019-04-11T06:07:42.091Z,7.00
2019-04-11T06:10:18.389Z,6.76
2019-04-11T06:13:13.308Z,6.74
2019-04-11T06:15:47.316Z,6.90
2019-04-11T06:18:33.114Z,6.88
2019-04-11T06:21:09.497Z,6.72
2019-04-11T06:24:09.923Z,6.91
2019-04-11T06:26:58.874Z,6.90
2019-04-11T06:29:41.243Z,6.80
2019-04-11T06:32:47.883Z,6.83
2019-04-11T06:35:28.768Z,7.00
2019-04-11T06:38:18.554Z,7.03
2019-04-11T06:41:04.094Z,7.20
2019-04-11T06:43:47.958Z,7.35
2019-04-11T06:46:55.776Z,7.13
2019-04-11T06:49:36.319Z,7.26
2019-04-11T06:52:10.612Z,7.21
2019-04-11T06:54:58.598Z,7.19
2019-04-11T06:57:32.026Z,7.28
2019-04-11T07:00:03.445Z,7.27
2019-04-11T07:02:38.931Z,7.30
2019-04-11T07:05:11.838Z,7.37
2019-04-11T07:07:47.327Z,7.34
2019-04-11T07:10:20.857Z,7.19
2019-04-11T07:13:03.487Z,7.26
2019-04-11T07:15:50.612Z,7.32
2019-04-11T07:18:40.261Z,7.44
2019-04-11T07:21:12.197Z,7.47
2019-04-11T07:24:03.241Z,7.56
2019-04-11T07:26:58.834Z,7.58
2019-04-11T07:30:01.496Z,7.62
2019-04-11T07:32:32.522Z,7.36
2019-04-11T07:35:27.644Z,7.60
2019-04-11T07:38:01.092Z,7.42
2019-04-11T07:41:00.661Z,7.42
2019-04-11T07:43:35.443Z,7.52
2019-04-11T07:46:25.558Z,7.24
2019-04-11T07:49:10.039Z,7.49
2019-04-11T07:51:50.689Z,7.31
2019-04-11T07:54:25.945Z,7.65
2019-04-11T07:57:32.383Z,7.98
2019-04-11T08:00:36.730Z,8.26
2019-04-11T08:03:21.465Z,8.40
2019-04-11T08:06:11.713Z,7.98
2019-04-11T08:09:05.037Z,8.09
2019-04-11T08:11:45.387Z,8.15
2019-04-11T08:14:44.596Z,8.28
2019-04-11T08:17:27.903Z,8.15
2019-04-11T08:20:08.057Z,8.27
2019-04-11T08:22:47.762Z,8.30
2019-04-11T08:25:57.754Z,8.30
2019-04-11T08:28:28.952Z,8.10
2019-04-11T08:31:11.034Z,8.36
2019-04-11T08:33:43.888Z,8.44
2019-04-11T08:36:33.775Z,8.61
2019-04-11T08:39:11.660Z,8.69
2019-04-11T08:42:03.129Z,8.77
2019-04-11T08:44:39.661Z,8.57
2019-04-11T08:47:13.047Z,8.91
2019-04-11T08:49:48.171Z,8.85
2019-04-11T08:52:38.510Z,8.65
2019-04-11T08:55:17.249Z,8.94
2019-04-11T08:57:51.892Z,9.06
2019-04-11T09:00:42.305Z,9.07
2019-04-11T09:03:29.468Z,9.18
2019-04-11T09:06:06.187Z,9.42
2019-04-11T09:09:02.813Z,9.19
2019-04-11T09:11:47.041Z,9.26
2019-04-11T09:14:41.071Z,9.57
2019-04-11T09:17:44.465Z,9.76
2019-04-11T09:20:38.333Z,9.82
2019-04-11T09:23:11.441Z,9.92
2019-04-11T09:26:20.200Z,9.92
2019-04-11T09:28:54.593Z,9.77
2019-04-11T09:31:51.989Z,9.73
2019-04-11T09:34:40.089Z,9.70
2019-04-11T09:37:30.965Z,9.57
2019-04-11T09:40:26.065Z,9.93
2019-04-11T09:43:15.996Z,10.32
2019-04-11T09:46:24.105Z,10.15
2019-04-11T09:49:12.368Z,10.25
2019-04-11T09:51:56.083Z,10.22
2019-04-11T09:54:42.068Z,10.30
2019-04-11T09:57:34.526Z,10.44
2019-04-11T10:00:27.381Z,10.52
2019-04-11T10:03:08.752Z,10.20
2019-04-11T10:05:59.767Z,10.05
2019-04-11T10:08:51.217Z,10.08
2019-04-11T10:11:55.006Z,10.28
2019-04-11T10:14:27.331Z,10.35
2019-04-11T10:17:26.882Z,10.18
2019-04-11T10:20:04.637Z,10.19
2019-04-11T10:23:12.486Z,10.13
2019-04-11T10:25:52.255Z,10.12
2019-04-11T10:28:49.597Z,10.26
2019-04-11T10:31:22.485Z,10.41
2019-04-11T10:34:27.852Z,10.46
2019-04-11T10:37:04.450Z,10.40
2019-04-11T10:39:54.607Z,10.19
2019-04-11T10:42:26.843Z,10.25
2019-04-11T10:45:16.999Z,10.05
2019-04-11T10:47:49.304Z,10.05
2019-04-11T10:50:53.591Z,10.01
2019-04-11T10:53:26.878Z,10.22
2019-04-11T10:56:18.117Z,10.12
2019-04-11T10:58:51.283Z,10.32
2019-04-11T11:01:40.431Z,10.39
2019-04-11T11:04:15.882Z,10.60
2019-04-11T11:06:51.794Z,10.51
2019-04-11T11:09:36.800Z,10.64
2019-04-11T11:12:27.413Z,10.60
2019-04-11T11:15:09.637Z,10.48
2019-04-11T11:18:31.040Z,10.49
2019-04-11T11:20:51.512Z,10.47
2019-04-11T11:23:37.342Z,10.69
2019-04-11T11:26:10.827Z,10.63
2019-04-11T11:28:52.580Z,10.63
2019-04-11T11:31:48.084Z,10.47
2019-04-11T11:34:26.305Z,10.48
2019-04-11T11:37:25.885Z,10.47
2019-04-11T11:40:18.031Z,10.43
2019-04-11T11:43:08.713Z,10.41
2019-04-11T11:45:51.610Z,10.32
2019-04-11T11:48:54.382Z,10.50
2019-04-11T11:51:47.784Z,10.58
2019-04-11T11:54:21.940Z,10.71
2019-04-11T11:56:54.404Z,10.86
2019-04-11T11:59:44.828Z,10.78
2019-04-11T12:02:26.378Z,10.73
2019-04-11T12:05:26.098Z,10.86
2019-04-11T12:08:16.604Z,11.03
2019-04-11T12:11:01.848Z,10.84
2019-04-11T12:14:00.012Z,10.80
2019-04-11T12:17:03.306Z,10.72
2019-04-11T12:19:47.669Z,10.72
2019-04-11T12:22:13.257Z,10.70
2019-04-11T12:24:57.199Z,10.71
2019-04-11T12:27:53.815Z,10.80
2019-04-11T12:30:44.150Z,10.88
2019-04-11T12:33:35.329Z,10.62
2019-04-11T12:36:16.747Z,10.63
2019-04-11T12:39:17.021Z,10.71
2019-04-11T12:42:04.692Z,10.93
2019-04-11T12:44:43.776Z,10.75
2019-04-11T12:47:38.330Z,10.80
2019-04-11T12:50:31.271Z,10.64
2019-04-11T12:53:13.703Z,10.47
2019-04-11T12:56:17.301Z,10.32
2019-04-11T12:59:09.558Z,10.30
2019-04-11T13:01:58.327Z,10.35
2019-04-11T13:04:31.999Z,10.38
2019-04-11T13:07:24.358Z,10.21
2019-04-11T13:10:14.267Z,10.15
2019-04-11T13:13:04.018Z,10.24
2019-04-11T13:15:41.091Z,10.20
2019-04-11T13:18:20.446Z,10.08
2019-04-11T13:20:56.473Z,10.07
2019-04-11T13:23:40.568Z,10.07
2019-04-11T13:26:39.367Z,10.06
2019-04-11T13:29:38.334Z,9.99
2019-04-11T13:32:34.511Z,9.96
2019-04-11T13:35:23.668Z,9.83
2019-04-11T13:38:07.349Z,9.75
2019-04-11T13:41:03.560Z,9.77
2019-04-11T13:43:51.419Z,9.92
2019-04-11T13:46:47.158Z,10.03
2019-04-11T13:49:35.761Z,9.89
2019-04-11T13:52:29.728Z,9.88
2019-04-11T13:55:18.988Z,9.93
2019-04-11T13:58:12.697Z,9.99
2019-04-11T14:00:57.057Z,9.98
2019-04-11T14:03:46.754Z,9.97
2019-04-11T14:06:40.575Z,10.09
2019-04-11T14:09:33.605Z,10.03
2019-04-11T14:12:09.836Z,9.91
2019-04-11T14:14:59.053Z,9.90
2019-04-11T14:17:51.876Z,9.83
2019-04-11T14:20:29.660Z,9.93
2019-04-11T14:23:16.656Z,9.89
2019-04-11T14:26:08.125Z,9.94
2019-04-11T14:29:05.717Z,9.92
2019-04-11T14:32:10.213Z,10.00
2019-04-11T14:35:02.549Z,10.01
2019-04-11T14:37:56.134Z,9.96
2019-04-11T14:40:42.728Z,9.92
2019-04-11T14:43:27.759Z,9.92
2019-04-11T14:46:22.329Z,9.95
2019-04-11T14:49:10.207Z,9.88
2019-04-11T14:51:58.577Z,9.99
2019-04-11T14:54:49.224Z,10.02
2019-04-11T14:57:48.196Z,10.08
2019-04-11T15:00:34.065Z,10.08
2019-04-11T15:03:22.873Z,10.14
2019-04-11T15:06:22.865Z,10.13
2019-04-11T15:09:11.259Z,10.05
2019-04-11T15:12:08.575Z,10.08
2019-04-11T15:15:02.032Z,9.95
2019-04-11T15:17:37.551Z,9.70
2019-04-11T15:20:24.479Z,9.59
2019-04-11T15:23:07.674Z,9.50
2019-04-11T15:26:09.016Z,9.39
2019-04-11T15:28:58.214Z,9.51
2019-04-11T15:31:47.747Z,9.41
2019-04-11T15:34:37.597Z,9.51
2019-04-11T15:37:36.010Z,9.48
2019-04-11T15:40:37.724Z,9.27
2019-04-11T15:43:42.212Z,9.31
2019-04-11T15:46:18.975Z,9.33
2019-04-11T15:49:19.963Z,9.35
2019-04-11T15:52:01.863Z,9.36
2019-04-11T15:54:55.186Z,9.38
2019-04-11T15:57:34.667Z,9.34
2019-04-11T16:00:29.360Z,9.46
2019-04-11T16:03:13.520Z,9.40
2019-04-11T16:06:02.835Z,9.14
2019-04-11T16:09:03.134Z,9.15
2019-04-11T16:11:53.924Z,9.10
2019-04-11T16:14:43.689Z,9.04
2019-04-11T16:17:36.485Z,8.96
2019-04-11T16:20:20.215Z,8.97
2019-04-11T16:23:10.296Z,8.95
2019-04-11T16:25:47.131Z,8.99
2019-04-11T16:28:43.795Z,8.89
2019-04-11T16:31:15.024Z,8.79
2019-04-11T16:34:17.952Z,8.68
2019-04-11T16:36:54.067Z,8.73
2019-04-11T16:39:54.848Z,8.71
2019-04-11T16:42:42.474Z,8.62
2019-04-11T16:45:40.630Z,8.56
2019-04-11T16:48:11.704Z,8.65
2019-04-11T16:50:43.501Z,8.53
2019-04-11T16:53:15.097Z,8.43
2019-04-11T16:55:47.804Z,8.33
2019-04-11T16:58:19.601Z,8.27
2019-04-11T17:00:52.583Z,8.19
2019-04-11T17:03:25.680Z,8.03
2019-04-11T17:06:44.226Z,8.05
2019-04-11T17:09:31.998Z,8.09
2019-04-11T17:12:04.845Z,7.92
2019-04-11T17:14:35.224Z,7.86
2019-04-11T17:17:14.981Z,7.78
2019-04-11T17:19:38.822Z,7.76
2019-04-11T17:22:10.199Z,7.76
2019-04-11T17:24:41.030Z,7.64
2019-04-11T17:27:12.892Z,7.62
2019-04-11T17:29:44.837Z,7.61
2019-04-11T17:32:16.833Z,7.53
2019-04-11T17:34:47.779Z,7.35
2019-04-11T17:37:19.770Z,7.22
2019-04-11T17:39:51.813Z,7.20
2019-04-11T17:42:23.405Z,7.12
2019-04-11T17:44:55.370Z,7.07
2019-04-11T17:47:27.066Z,7.03
2019-04-11T17:49:59.566Z,7.08
2019-04-11T17:52:30.173Z,7.12
2019-04-11T17:55:01.830Z,7.07
2019-04-11T17:57:32.925Z,7.04
2019-04-11T18:00:05.346Z,7.02
2019-04-11T18:02:39.027Z,7.05
2019-04-11T18:05:08.715Z,7.01
2019-04-11T18:07:41.494Z,7.04
2019-04-11T18:10:12.442Z,7.06
2019-04-11T18:12:43.890Z,7.07
2019-04-11T18:15:15.533Z,7.12
2019-04-11T18:17:47.190Z,7.10
2019-04-11T18:20:20.028Z,7.09
2019-04-11T18:22:50.954Z,7.18
2019-04-11T18:25:22.042Z,7.14
2019-04-11T18:27:53.647Z,7.13
2019-04-11T18:30:24.726Z,7.10
2019-04-11T18:32:56.537Z,7.13
2019-04-11T18:35:31.763Z,7.14
2019-04-11T18:38:02.682Z,7.19
2019-04-11T18:40:34.460Z,7.14
2019-04-11T18:43:06.352Z,7.24
2019-04-11T18:45:38.073Z,7.24
2019-04-11T18:48:09.564Z,7.29
2019-04-11T18:50:41.122Z,7.30
2019-04-11T18:53:12.779Z,7.44
2019-04-11T18:55:44.814Z,7.44
2019-04-11T18:58:15.798Z,7.45
2019-04-11T19:00:47.652Z,7.48
2019-04-11T19:03:19.559Z,7.49
2019-04-11T19:05:51.454Z,7.47
2019-04-11T19:08:22.526Z,7.48
2019-04-11T19:10:54.294Z,7.54
2019-04-11T19:13:26.008Z,7.49
2019-04-11T19:15:57.993Z,7.49
2019-04-11T19:18:29.070Z,7.57
2019-04-11T19:21:01.000Z,7.58
2019-04-11T19:23:32.799Z,7.53
2019-04-11T19:26:04.640Z,7.52
2019-04-11T19:28:36.300Z,7.53
2019-04-11T19:31:07.520Z,7.49
2019-04-11T19:33:39.975Z,7.49
2019-04-11T19:36:12.297Z,7.45
2019-04-11T19:38:43.967Z,7.47
2019-04-11T19:41:17.463Z,7.42
2019-04-11T19:43:49.816Z,7.44
2019-04-11T19:46:21.002Z,7.38
2019-04-11T19:48:55.364Z,7.44
2019-04-11T19:51:28.785Z,7.42
2019-04-11T19:54:03.021Z,7.36
2019-04-11T19:56:41.348Z,7.41
2019-04-11T19:59:14.314Z,7.43
2019-04-11T20:01:45.427Z,7.36
2019-04-11T20:04:34.160Z,7.37
2019-04-11T20:07:22.689Z,7.36
2019-04-11T20:10:11.444Z,7.39
2019-04-11T20:13:01.988Z,7.36
2019-04-11T20:15:50.608Z,7.32
2019-04-11T20:18:50.420Z,7.31
2019-04-11T20:21:28.892Z,7.34
2019-04-11T20:24:17.424Z,7.34
2019-04-11T20:27:05.734Z,7.22
2019-04-11T20:29:55.358Z,7.24
2019-04-11T20:32:44.146Z,7.23
2019-04-11T20:35:32.638Z,7.21
2019-04-11T20:38:20.847Z,7.11
2019-04-11T20:41:09.270Z,7.11
2019-04-11T20:43:57.893Z,7.08
2019-04-11T20:46:46.038Z,7.09
2019-04-11T20:49:45.625Z,7.11
2019-04-11T20:52:33.915Z,7.04
2019-04-11T20:55:22.679Z,7.03
2019-04-11T20:58:11.103Z,7.07
2019-04-11T21:01:00.611Z,7.02
2019-04-11T21:03:48.999Z,7.06
2019-04-11T21:06:37.594Z,7.02
2019-04-11T21:09:25.854Z,6.94
2019-04-11T21:12:16.475Z,6.96
2019-04-11T21:15:05.324Z,6.88
2019-04-11T21:17:56.124Z,7.00
2019-04-11T21:20:44.062Z,6.93
2019-04-11T21:23:32.981Z,6.94
2019-04-11T21:26:21.217Z,6.95
2019-04-11T21:29:10.177Z,6.97
2019-04-11T21:32:00.919Z,6.91
2019-04-11T21:34:55.830Z,6.96
2019-04-11T21:37:44.374Z,6.90
2019-04-11T21:40:35.620Z,6.99
2019-04-11T21:43:23.153Z,6.91
2019-04-11T21:46:11.458Z,6.89
2019-04-11T21:48:59.788Z,6.90
2019-04-11T21:51:48.061Z,6.89
2019-04-11T21:55:02.788Z,6.81
2019-04-11T21:57:51.437Z,6.82
2019-04-11T22:00:43.622Z,6.83
2019-04-11T22:03:32.956Z,6.79
2019-04-11T22:06:21.224Z,6.84
2019-04-11T22:09:10.298Z,6.74
2019-04-11T22:11:59.948Z,6.80
2019-04-11T22:14:48.606Z,6.77
2019-04-11T22:17:37.066Z,6.80
2019-04-11T22:20:25.742Z,6.75
2019-04-11T22:23:14.165Z,6.69
2019-04-11T22:26:02.723Z,6.66
2019-04-11T22:28:54.918Z,6.68
2019-04-11T22:31:41.173Z,6.69
2019-04-11T22:34:43.946Z,6.69
2019-04-11T22:37:32.571Z,6.62
2019-04-11T22:40:20.817Z,6.65
2019-04-11T22:43:21.747Z,6.66
2019-04-11T22:45:59.598Z,6.56
2019-04-11T22:48:47.835Z,6.53
2019-04-11T22:51:36.205Z,6.60
2019-04-11T22:54:24.772Z,6.61
2019-04-11T22:57:13.453Z,6.57
2019-04-11T23:00:01.752Z,6.57
2019-04-11T23:03:08.920Z,6.62
2019-04-11T23:05:57.788Z,6.62
2019-04-11T23:08:48.532Z,6.59
2019-04-11T23:11:36.411Z,6.55
2019-04-11T23:14:24.613Z,6.68
2019-04-11T23:17:14.197Z,6.63
2019-04-11T23:20:03.646Z,6.66
2019-04-11T23:22:52.214Z,6.58
2019-04-11T23:25:40.377Z,6.54
2019-04-11T23:28:28.609Z,6.54
2019-04-11T23:31:19.922Z,6.57
2019-04-11T23:34:07.212Z,6.53
2019-04-11T23:36:56.062Z,6.47
2019-04-11T23:39:44.491Z,6.51
2019-04-11T23:42:33.140Z,6.49
2019-04-11T23:45:24.426Z,6.47
2019-04-11T23:48:12.665Z,6.44
2019-04-11T23:51:00.987Z,6.42
2019-04-11T23:53:49.680Z,6.36
2019-04-11T23:56:38.027Z,6.32
2019-04-11T23:59:31.726Z,6.33
